sensor_id;sensor_type;location;lat;lon;timestamp;P1;durP1;ratioP1;P2;durP2;ratioP2
13345;SDS011;6742;48.036;15.780;2023-02-08T00:00:49;12.63;;;7.10;;
13345;SDS011;6742;48.036;15.780;2023-02-08T00:03:16;15.70;;;7.70;;
13345;SDS011;6742;48.036;15.780;2023-02-08T00:05:43;10.50;;;6.97;;
13345;SDS011;6742;48.036;15.780;2023-02-08T00:08:10;11.83;;;7.40;;
13345;SDS011;6742;48.036;15.780;2023-02-08T00:10:37;10.77;;;6.90;;
13345;SDS011;6742;48.036;15.780;2023-02-08T00:13:03;10.97;;;7.47;;
13345;SDS011;6742;48.036;15.780;2023-02-08T00:15:32;10.90;;;7.30;;
13345;SDS011;6742;48.036;15.780;2023-02-08T00:17:59;14.87;;;7.53;;
13345;SDS011;6742;48.036;15.780;2023-02-08T00:20:26;13.60;;;7.77;;
13345;SDS011;6742;48.036;15.780;2023-02-08T00:22:52;13.17;;;7.70;;
13345;SDS011;6742;48.036;15.780;2023-02-08T00:25:19;13.23;;;7.30;;
13345;SDS011;6742;48.036;15.780;2023-02-08T00:27:46;14.03;;;7.47;;
13345;SDS011;6742;48.036;15.780;2023-02-08T00:30:13;11.63;;;7.60;;
13345;SDS011;6742;48.036;15.780;2023-02-08T00:32:41;12.97;;;7.97;;
13345;SDS011;6742;48.036;15.780;2023-02-08T00:35:09;15.13;;;8.20;;
13345;SDS011;6742;48.036;15.780;2023-02-08T00:37:36;14.30;;;7.70;;
13345;SDS011;6742;48.036;15.780;2023-02-08T00:40:03;14.10;;;7.70;;
13345;SDS011;6742;48.036;15.780;2023-02-08T00:42:30;12.77;;;7.10;;
13345;SDS011;6742;48.036;15.780;2023-02-08T00:44:57;14.90;;;8.07;;
13345;SDS011;6742;48.036;15.780;2023-02-08T00:47:27;15.17;;;7.70;;
13345;SDS011;6742;48.036;15.780;2023-02-08T00:49:55;15.03;;;7.83;;
13345;SDS011;6742;48.036;15.780;2023-02-08T00:52:22;12.40;;;6.70;;
13345;SDS011;6742;48.036;15.780;2023-02-08T00:54:49;12.83;;;7.20;;
13345;SDS011;6742;48.036;15.780;2023-02-08T00:57:19;11.93;;;7.03;;
13345;SDS011;6742;48.036;15.780;2023-02-08T00:59:46;11.23;;;6.37;;
13345;SDS011;6742;48.036;15.780;2023-02-08T01:02:13;13.00;;;7.23;;
13345;SDS011;6742;48.036;15.780;2023-02-08T01:04:40;10.77;;;7.40;;
13345;SDS011;6742;48.036;15.780;2023-02-08T01:07:08;12.00;;;7.47;;
13345;SDS011;6742;48.036;15.780;2023-02-08T01:09:35;12.03;;;7.33;;
13345;SDS011;6742;48.036;15.780;2023-02-08T01:12:02;11.47;;;7.77;;
13345;SDS011;6742;48.036;15.780;2023-02-08T01:14:29;10.90;;;7.00;;
13345;SDS011;6742;48.036;15.780;2023-02-08T01:16:56;12.77;;;7.43;;
13345;SDS011;6742;48.036;15.780;2023-02-08T01:19:23;13.67;;;7.93;;
13345;SDS011;6742;48.036;15.780;2023-02-08T01:21:50;12.93;;;7.47;;
13345;SDS011;6742;48.036;15.780;2023-02-08T01:24:18;12.03;;;7.13;;
13345;SDS011;6742;48.036;15.780;2023-02-08T01:26:45;12.00;;;7.83;;
13345;SDS011;6742;48.036;15.780;2023-02-08T01:29:12;12.17;;;7.23;;
13345;SDS011;6742;48.036;15.780;2023-02-08T01:31:40;12.07;;;7.10;;
13345;SDS011;6742;48.036;15.780;2023-02-08T01:34:08;12.77;;;7.60;;
13345;SDS011;6742;48.036;15.780;2023-02-08T01:36:37;13.10;;;8.33;;
13345;SDS011;6742;48.036;15.780;2023-02-08T01:39:05;12.17;;;7.60;;
13345;SDS011;6742;48.036;15.780;2023-02-08T01:41:35;12.73;;;8.03;;
13345;SDS011;6742;48.036;15.780;2023-02-08T01:44:04;11.13;;;7.27;;
13345;SDS011;6742;48.036;15.780;2023-02-08T01:46:34;15.50;;;7.30;;
13345;SDS011;6742;48.036;15.780;2023-02-08T01:49:05;11.87;;;7.67;;
13345;SDS011;6742;48.036;15.780;2023-02-08T01:51:36;12.47;;;7.87;;
13345;SDS011;6742;48.036;15.780;2023-02-08T01:54:07;12.33;;;7.77;;
13345;SDS011;6742;48.036;15.780;2023-02-08T01:56:38;12.30;;;7.63;;
13345;SDS011;6742;48.036;15.780;2023-02-08T01:59:10;12.43;;;7.77;;
13345;SDS011;6742;48.036;15.780;2023-02-08T02:01:41;14.17;;;7.93;;
13345;SDS011;6742;48.036;15.780;2023-02-08T02:04:10;13.83;;;8.40;;
13345;SDS011;6742;48.036;15.780;2023-02-08T02:06:38;13.23;;;7.67;;
13345;SDS011;6742;48.036;15.780;2023-02-08T02:09:09;12.63;;;7.80;;
13345;SDS011;6742;48.036;15.780;2023-02-08T02:11:41;14.07;;;7.70;;
13345;SDS011;6742;48.036;15.780;2023-02-08T02:14:09;12.53;;;7.40;;
13345;SDS011;6742;48.036;15.780;2023-02-08T02:16:36;11.77;;;7.17;;
13345;SDS011;6742;48.036;15.780;2023-02-08T02:19:03;13.37;;;8.10;;
13345;SDS011;6742;48.036;15.780;2023-02-08T02:21:42;13.60;;;8.03;;
13345;SDS011;6742;48.036;15.780;2023-02-08T02:24:29;12.00;;;7.90;;
13345;SDS011;6742;48.036;15.780;2023-02-08T02:30:31;12.77;;;7.97;;
13345;SDS011;6742;48.036;15.780;2023-02-08T02:36:15;11.57;;;7.57;;
13345;SDS011;6742;48.036;15.780;2023-02-08T02:38:49;14.67;;;7.90;;
13345;SDS011;6742;48.036;15.780;2023-02-08T02:41:29;13.20;;;7.33;;
13345;SDS011;6742;48.036;15.780;2023-02-08T02:44:23;14.10;;;8.60;;
13345;SDS011;6742;48.036;15.780;2023-02-08T02:47:00;12.30;;;7.27;;
13345;SDS011;6742;48.036;15.780;2023-02-08T02:49:35;11.97;;;7.40;;
13345;SDS011;6742;48.036;15.780;2023-02-08T02:52:05;12.57;;;7.67;;
13345;SDS011;6742;48.036;15.780;2023-02-08T02:54:37;13.87;;;8.33;;
13345;SDS011;6742;48.036;15.780;2023-02-08T02:57:09;12.93;;;7.80;;
13345;SDS011;6742;48.036;15.780;2023-02-08T02:59:40;13.63;;;8.53;;
13345;SDS011;6742;48.036;15.780;2023-02-08T03:02:09;12.33;;;7.60;;
13345;SDS011;6742;48.036;15.780;2023-02-08T03:04:47;13.53;;;7.27;;
13345;SDS011;6742;48.036;15.780;2023-02-08T03:07:19;12.30;;;7.93;;
13345;SDS011;6742;48.036;15.780;2023-02-08T03:10:12;12.30;;;7.50;;
13345;SDS011;6742;48.036;15.780;2023-02-08T03:12:52;13.23;;;7.33;;
13345;SDS011;6742;48.036;15.780;2023-02-08T03:15:27;11.63;;;7.73;;
13345;SDS011;6742;48.036;15.780;2023-02-08T03:18:03;12.40;;;7.60;;
13345;SDS011;6742;48.036;15.780;2023-02-08T03:20:37;13.03;;;7.83;;
13345;SDS011;6742;48.036;15.780;2023-02-08T03:23:07;14.57;;;8.87;;
13345;SDS011;6742;48.036;15.780;2023-02-08T03:25:45;10.17;;;6.77;;
13345;SDS011;6742;48.036;15.780;2023-02-08T03:28:17;9.30;;;6.83;;
13345;SDS011;6742;48.036;15.780;2023-02-08T03:30:50;12.73;;;7.17;;
13345;SDS011;6742;48.036;15.780;2023-02-08T03:33:24;13.33;;;8.20;;
13345;SDS011;6742;48.036;15.780;2023-02-08T03:35:58;13.07;;;7.43;;
13345;SDS011;6742;48.036;15.780;2023-02-08T03:38:30;12.77;;;8.37;;
13345;SDS011;6742;48.036;15.780;2023-02-08T03:41:01;11.20;;;7.33;;
13345;SDS011;6742;48.036;15.780;2023-02-08T03:43:32;13.17;;;8.17;;
13345;SDS011;6742;48.036;15.780;2023-02-08T03:46:04;12.63;;;7.97;;
13345;SDS011;6742;48.036;15.780;2023-02-08T03:48:35;9.83;;;6.57;;
13345;SDS011;6742;48.036;15.780;2023-02-08T03:51:13;11.50;;;7.67;;
13345;SDS011;6742;48.036;15.780;2023-02-08T03:53:43;15.33;;;7.67;;
13345;SDS011;6742;48.036;15.780;2023-02-08T03:56:13;12.03;;;6.70;;
13345;SDS011;6742;48.036;15.780;2023-02-08T03:58:47;12.97;;;8.33;;
13345;SDS011;6742;48.036;15.780;2023-02-08T04:01:18;12.57;;;7.50;;
13345;SDS011;6742;48.036;15.780;2023-02-08T04:03:48;13.43;;;7.20;;
13345;SDS011;6742;48.036;15.780;2023-02-08T04:06:19;13.57;;;8.17;;
13345;SDS011;6742;48.036;15.780;2023-02-08T04:08:47;12.00;;;7.73;;
13345;SDS011;6742;48.036;15.780;2023-02-08T04:11:14;10.97;;;6.80;;
13345;SDS011;6742;48.036;15.780;2023-02-08T04:13:41;10.20;;;7.23;;
13345;SDS011;6742;48.036;15.780;2023-02-08T04:16:08;12.20;;;7.47;;
13345;SDS011;6742;48.036;15.780;2023-02-08T04:18:36;14.27;;;8.03;;
13345;SDS011;6742;48.036;15.780;2023-02-08T04:21:03;11.67;;;7.40;;
13345;SDS011;6742;48.036;15.780;2023-02-08T04:23:32;14.53;;;7.93;;
13345;SDS011;6742;48.036;15.780;2023-02-08T04:25:59;12.50;;;7.43;;
13345;SDS011;6742;48.036;15.780;2023-02-08T04:28:26;13.50;;;7.77;;
13345;SDS011;6742;48.036;15.780;2023-02-08T04:30:55;12.23;;;7.60;;
13345;SDS011;6742;48.036;15.780;2023-02-08T04:33:22;11.33;;;7.50;;
13345;SDS011;6742;48.036;15.780;2023-02-08T04:35:52;11.63;;;7.70;;
13345;SDS011;6742;48.036;15.780;2023-02-08T04:38:18;12.37;;;7.83;;
13345;SDS011;6742;48.036;15.780;2023-02-08T04:40:47;11.57;;;7.70;;
13345;SDS011;6742;48.036;15.780;2023-02-08T04:43:14;13.30;;;7.67;;
13345;SDS011;6742;48.036;15.780;2023-02-08T04:45:40;11.90;;;7.10;;
13345;SDS011;6742;48.036;15.780;2023-02-08T04:48:07;12.33;;;7.33;;
13345;SDS011;6742;48.036;15.780;2023-02-08T04:50:34;12.17;;;7.27;;
13345;SDS011;6742;48.036;15.780;2023-02-08T04:53:04;12.93;;;8.10;;
13345;SDS011;6742;48.036;15.780;2023-02-08T04:55:31;12.00;;;7.60;;
13345;SDS011;6742;48.036;15.780;2023-02-08T04:57:59;12.40;;;7.30;;
13345;SDS011;6742;48.036;15.780;2023-02-08T05:00:27;12.03;;;7.43;;
13345;SDS011;6742;48.036;15.780;2023-02-08T05:02:54;11.37;;;7.00;;
13345;SDS011;6742;48.036;15.780;2023-02-08T05:05:22;10.33;;;7.10;;
13345;SDS011;6742;48.036;15.780;2023-02-08T05:07:50;11.77;;;7.70;;
13345;SDS011;6742;48.036;15.780;2023-02-08T05:10:17;12.20;;;7.40;;
13345;SDS011;6742;48.036;15.780;2023-02-08T05:12:44;11.60;;;7.13;;
13345;SDS011;6742;48.036;15.780;2023-02-08T05:15:12;13.63;;;8.03;;
13345;SDS011;6742;48.036;15.780;2023-02-08T05:17:39;12.60;;;7.63;;
13345;SDS011;6742;48.036;15.780;2023-02-08T05:20:06;11.13;;;7.13;;
13345;SDS011;6742;48.036;15.780;2023-02-08T05:22:34;13.53;;;7.77;;
13345;SDS011;6742;48.036;15.780;2023-02-08T05:25:01;13.27;;;8.47;;
13345;SDS011;6742;48.036;15.780;2023-02-08T05:27:28;13.53;;;7.53;;
13345;SDS011;6742;48.036;15.780;2023-02-08T05:29:55;11.40;;;7.60;;
13345;SDS011;6742;48.036;15.780;2023-02-08T05:32:23;12.27;;;7.37;;
13345;SDS011;6742;48.036;15.780;2023-02-08T05:34:50;12.03;;;7.50;;
13345;SDS011;6742;48.036;15.780;2023-02-08T05:37:17;12.53;;;7.67;;
13345;SDS011;6742;48.036;15.780;2023-02-08T05:39:44;11.57;;;7.57;;
13345;SDS011;6742;48.036;15.780;2023-02-08T05:42:11;12.60;;;7.87;;
13345;SDS011;6742;48.036;15.780;2023-02-08T05:44:38;12.63;;;7.43;;
13345;SDS011;6742;48.036;15.780;2023-02-08T05:47:05;13.17;;;7.83;;
13345;SDS011;6742;48.036;15.780;2023-02-08T05:49:33;14.37;;;8.67;;
13345;SDS011;6742;48.036;15.780;2023-02-08T05:52:00;13.83;;;8.30;;
13345;SDS011;6742;48.036;15.780;2023-02-08T05:54:27;14.40;;;8.27;;
13345;SDS011;6742;48.036;15.780;2023-02-08T05:56:53;17.57;;;8.40;;
13345;SDS011;6742;48.036;15.780;2023-02-08T05:59:20;13.53;;;7.70;;
13345;SDS011;6742;48.036;15.780;2023-02-08T06:01:47;12.43;;;7.83;;
13345;SDS011;6742;48.036;15.780;2023-02-08T06:04:14;11.90;;;7.80;;
13345;SDS011;6742;48.036;15.780;2023-02-08T06:06:42;12.23;;;7.97;;
13345;SDS011;6742;48.036;15.780;2023-02-08T06:09:09;13.47;;;7.83;;
13345;SDS011;6742;48.036;15.780;2023-02-08T06:11:36;13.13;;;8.20;;
13345;SDS011;6742;48.036;15.780;2023-02-08T06:14:03;11.90;;;7.57;;
13345;SDS011;6742;48.036;15.780;2023-02-08T06:16:30;13.10;;;8.03;;
13345;SDS011;6742;48.036;15.780;2023-02-08T06:18:57;15.97;;;9.00;;
13345;SDS011;6742;48.036;15.780;2023-02-08T06:21:24;13.30;;;8.00;;
13345;SDS011;6742;48.036;15.780;2023-02-08T06:23:56;13.03;;;8.07;;
13345;SDS011;6742;48.036;15.780;2023-02-08T06:26:23;13.23;;;7.70;;
13345;SDS011;6742;48.036;15.780;2023-02-08T06:28:50;15.13;;;8.20;;
13345;SDS011;6742;48.036;15.780;2023-02-08T06:31:17;13.27;;;8.33;;
13345;SDS011;6742;48.036;15.780;2023-02-08T06:33:43;15.47;;;8.37;;
13345;SDS011;6742;48.036;15.780;2023-02-08T06:36:10;13.07;;;8.07;;
13345;SDS011;6742;48.036;15.780;2023-02-08T06:38:37;12.93;;;8.10;;
13345;SDS011;6742;48.036;15.780;2023-02-08T06:41:05;14.40;;;8.67;;
13345;SDS011;6742;48.036;15.780;2023-02-08T06:43:32;12.00;;;8.60;;
13345;SDS011;6742;48.036;15.780;2023-02-08T06:45:59;15.27;;;9.30;;
13345;SDS011;6742;48.036;15.780;2023-02-08T06:48:28;12.00;;;8.43;;
13345;SDS011;6742;48.036;15.780;2023-02-08T06:50:55;15.47;;;9.63;;
13345;SDS011;6742;48.036;15.780;2023-02-08T06:53:22;14.77;;;8.33;;
13345;SDS011;6742;48.036;15.780;2023-02-08T06:55:49;16.53;;;9.00;;
13345;SDS011;6742;48.036;15.780;2023-02-08T06:58:18;14.93;;;9.53;;
13345;SDS011;6742;48.036;15.780;2023-02-08T07:00:45;18.37;;;9.20;;
13345;SDS011;6742;48.036;15.780;2023-02-08T07:03:13;15.90;;;9.90;;
13345;SDS011;6742;48.036;15.780;2023-02-08T07:05:41;14.87;;;8.63;;
13345;SDS011;6742;48.036;15.780;2023-02-08T07:08:08;18.10;;;8.73;;
13345;SDS011;6742;48.036;15.780;2023-02-08T07:10:36;16.10;;;9.30;;
13345;SDS011;6742;48.036;15.780;2023-02-08T07:13:03;15.03;;;8.63;;
13345;SDS011;6742;48.036;15.780;2023-02-08T07:15:32;15.30;;;8.97;;
13345;SDS011;6742;48.036;15.780;2023-02-08T07:17:59;14.83;;;9.40;;
13345;SDS011;6742;48.036;15.780;2023-02-08T07:20:29;16.10;;;9.30;;
13345;SDS011;6742;48.036;15.780;2023-02-08T07:22:56;15.07;;;9.17;;
13345;SDS011;6742;48.036;15.780;2023-02-08T07:25:23;15.20;;;8.23;;
13345;SDS011;6742;48.036;15.780;2023-02-08T07:27:50;14.70;;;9.10;;
13345;SDS011;6742;48.036;15.780;2023-02-08T07:30:17;15.97;;;9.53;;
13345;SDS011;6742;48.036;15.780;2023-02-08T07:32:45;17.43;;;9.70;;
13345;SDS011;6742;48.036;15.780;2023-02-08T07:35:12;18.93;;;11.17;;
13345;SDS011;6742;48.036;15.780;2023-02-08T07:37:39;14.03;;;9.13;;
13345;SDS011;6742;48.036;15.780;2023-02-08T07:40:06;14.70;;;9.40;;
13345;SDS011;6742;48.036;15.780;2023-02-08T07:42:34;17.43;;;10.37;;
13345;SDS011;6742;48.036;15.780;2023-02-08T07:45:00;18.60;;;10.20;;
13345;SDS011;6742;48.036;15.780;2023-02-08T07:47:28;13.10;;;8.20;;
13345;SDS011;6742;48.036;15.780;2023-02-08T07:49:56;14.03;;;9.40;;
13345;SDS011;6742;48.036;15.780;2023-02-08T07:52:23;15.30;;;8.67;;
13345;SDS011;6742;48.036;15.780;2023-02-08T07:54:50;12.77;;;8.80;;
13345;SDS011;6742;48.036;15.780;2023-02-08T07:57:17;13.23;;;8.87;;
13345;SDS011;6742;48.036;15.780;2023-02-08T07:59:46;16.67;;;10.40;;
13345;SDS011;6742;48.036;15.780;2023-02-08T08:02:16;25.60;;;13.10;;
13345;SDS011;6742;48.036;15.780;2023-02-08T08:04:44;16.17;;;9.83;;
13345;SDS011;6742;48.036;15.780;2023-02-08T08:07:12;17.10;;;9.70;;
13345;SDS011;6742;48.036;15.780;2023-02-08T08:09:39;17.90;;;10.07;;
13345;SDS011;6742;48.036;15.780;2023-02-08T08:12:06;13.33;;;8.87;;
13345;SDS011;6742;48.036;15.780;2023-02-08T08:14:33;18.73;;;9.77;;
13345;SDS011;6742;48.036;15.780;2023-02-08T08:17:00;12.90;;;9.67;;
13345;SDS011;6742;48.036;15.780;2023-02-08T08:19:27;15.03;;;9.33;;
13345;SDS011;6742;48.036;15.780;2023-02-08T08:21:54;14.97;;;9.93;;
13345;SDS011;6742;48.036;15.780;2023-02-08T08:24:22;16.73;;;8.83;;
13345;SDS011;6742;48.036;15.780;2023-02-08T08:26:49;16.33;;;10.33;;
13345;SDS011;6742;48.036;15.780;2023-02-08T08:29:19;13.83;;;9.60;;
13345;SDS011;6742;48.036;15.780;2023-02-08T08:31:45;14.17;;;9.13;;
13345;SDS011;6742;48.036;15.780;2023-02-08T08:34:12;14.03;;;9.17;;
13345;SDS011;6742;48.036;15.780;2023-02-08T08:36:42;14.17;;;9.90;;
13345;SDS011;6742;48.036;15.780;2023-02-08T08:39:10;14.00;;;9.57;;
13345;SDS011;6742;48.036;15.780;2023-02-08T08:41:38;14.37;;;9.87;;
13345;SDS011;6742;48.036;15.780;2023-02-08T08:44:05;13.13;;;9.60;;
13345;SDS011;6742;48.036;15.780;2023-02-08T08:46:32;13.53;;;9.60;;
13345;SDS011;6742;48.036;15.780;2023-02-08T08:48:59;13.47;;;9.37;;
13345;SDS011;6742;48.036;15.780;2023-02-08T08:51:25;12.80;;;9.10;;
13345;SDS011;6742;48.036;15.780;2023-02-08T08:53:52;14.60;;;9.43;;
13345;SDS011;6742;48.036;15.780;2023-02-08T08:56:19;12.87;;;9.30;;
13345;SDS011;6742;48.036;15.780;2023-02-08T08:58:47;14.17;;;10.37;;
13345;SDS011;6742;48.036;15.780;2023-02-08T09:01:14;16.13;;;10.03;;
13345;SDS011;6742;48.036;15.780;2023-02-08T09:03:41;14.03;;;9.30;;
13345;SDS011;6742;48.036;15.780;2023-02-08T09:06:08;12.73;;;8.60;;
13345;SDS011;6742;48.036;15.780;2023-02-08T09:08:35;9.93;;;6.80;;
13345;SDS011;6742;48.036;15.780;2023-02-08T09:11:03;10.73;;;7.73;;
13345;SDS011;6742;48.036;15.780;2023-02-08T09:13:32;9.50;;;7.10;;
13345;SDS011;6742;48.036;15.780;2023-02-08T09:16:04;11.07;;;7.33;;
13345;SDS011;6742;48.036;15.780;2023-02-08T09:18:31;11.07;;;7.23;;
13345;SDS011;6742;48.036;15.780;2023-02-08T09:21:03;10.00;;;7.07;;
13345;SDS011;6742;48.036;15.780;2023-02-08T09:23:31;11.53;;;7.83;;
13345;SDS011;6742;48.036;15.780;2023-02-08T09:25:58;10.70;;;7.53;;
13345;SDS011;6742;48.036;15.780;2023-02-08T09:28:30;9.77;;;6.73;;
13345;SDS011;6742;48.036;15.780;2023-02-08T09:30:57;11.13;;;7.23;;
13345;SDS011;6742;48.036;15.780;2023-02-08T09:33:27;10.27;;;6.63;;
13345;SDS011;6742;48.036;15.780;2023-02-08T09:35:53;8.67;;;6.40;;
13345;SDS011;6742;48.036;15.780;2023-02-08T09:38:20;12.27;;;7.30;;
13345;SDS011;6742;48.036;15.780;2023-02-08T09:40:48;10.50;;;6.63;;
13345;SDS011;6742;48.036;15.780;2023-02-08T09:43:28;10.30;;;6.27;;
13345;SDS011;6742;48.036;15.780;2023-02-08T09:46:07;11.77;;;7.57;;
13345;SDS011;6742;48.036;15.780;2023-02-08T09:48:42;9.53;;;6.93;;
13345;SDS011;6742;48.036;15.780;2023-02-08T09:51:13;11.37;;;7.13;;
13345;SDS011;6742;48.036;15.780;2023-02-08T09:53:50;13.90;;;8.17;;
13345;SDS011;6742;48.036;15.780;2023-02-08T09:56:25;12.37;;;7.50;;
13345;SDS011;6742;48.036;15.780;2023-02-08T09:59:00;12.53;;;7.70;;
13345;SDS011;6742;48.036;15.780;2023-02-08T10:01:28;10.97;;;7.00;;
13345;SDS011;6742;48.036;15.780;2023-02-08T10:04:00;11.23;;;7.43;;
13345;SDS011;6742;48.036;15.780;2023-02-08T10:06:32;10.73;;;6.70;;
13345;SDS011;6742;48.036;15.780;2023-02-08T10:09:00;7.20;;;5.33;;
13345;SDS011;6742;48.036;15.780;2023-02-08T10:11:34;8.77;;;6.10;;
13345;SDS011;6742;48.036;15.780;2023-02-08T10:14:29;10.20;;;5.83;;
13345;SDS011;6742;48.036;15.780;2023-02-08T10:17:17;9.67;;;6.20;;
13345;SDS011;6742;48.036;15.780;2023-02-08T10:19:58;9.00;;;5.33;;
13345;SDS011;6742;48.036;15.780;2023-02-08T10:22:34;7.10;;;5.33;;
13345;SDS011;6742;48.036;15.780;2023-02-08T10:25:17;9.10;;;5.60;;
13345;SDS011;6742;48.036;15.780;2023-02-08T10:30:56;8.50;;;5.23;;
13345;SDS011;6742;48.036;15.780;2023-02-08T10:33:34;8.10;;;5.10;;
13345;SDS011;6742;48.036;15.780;2023-02-08T10:36:10;7.47;;;5.10;;
13345;SDS011;6742;48.036;15.780;2023-02-08T10:38:39;6.27;;;4.53;;
13345;SDS011;6742;48.036;15.780;2023-02-08T10:41:07;8.33;;;4.63;;
13345;SDS011;6742;48.036;15.780;2023-02-08T10:43:41;6.27;;;4.13;;
13345;SDS011;6742;48.036;15.780;2023-02-08T10:46:15;8.33;;;4.80;;
13345;SDS011;6742;48.036;15.780;2023-02-08T10:48:52;6.43;;;4.13;;
13345;SDS011;6742;48.036;15.780;2023-02-08T10:51:33;7.00;;;4.50;;
13345;SDS011;6742;48.036;15.780;2023-02-08T10:54:00;7.27;;;4.70;;
13345;SDS011;6742;48.036;15.780;2023-02-08T10:56:34;6.10;;;4.30;;
13345;SDS011;6742;48.036;15.780;2023-02-08T10:59:09;8.17;;;4.27;;
13345;SDS011;6742;48.036;15.780;2023-02-08T11:01:43;6.90;;;4.37;;
13345;SDS011;6742;48.036;15.780;2023-02-08T11:04:12;7.53;;;4.37;;
13345;SDS011;6742;48.036;15.780;2023-02-08T11:06:42;5.00;;;3.50;;
13345;SDS011;6742;48.036;15.780;2023-02-08T11:09:18;4.90;;;3.77;;
13345;SDS011;6742;48.036;15.780;2023-02-08T11:11:47;6.63;;;4.13;;
13345;SDS011;6742;48.036;15.780;2023-02-08T11:14:17;7.27;;;4.27;;
13345;SDS011;6742;48.036;15.780;2023-02-08T11:16:48;7.13;;;4.50;;
13345;SDS011;6742;48.036;15.780;2023-02-08T11:19:19;5.90;;;4.27;;
13345;SDS011;6742;48.036;15.780;2023-02-08T11:21:54;6.63;;;4.33;;
13345;SDS011;6742;48.036;15.780;2023-02-08T11:24:22;6.03;;;4.10;;
13345;SDS011;6742;48.036;15.780;2023-02-08T11:26:53;8.17;;;3.80;;
13345;SDS011;6742;48.036;15.780;2023-02-08T11:29:22;4.93;;;3.80;;
13345;SDS011;6742;48.036;15.780;2023-02-08T11:32:00;3.40;;;2.40;;
13345;SDS011;6742;48.036;15.780;2023-02-08T11:34:31;5.23;;;3.33;;
13345;SDS011;6742;48.036;15.780;2023-02-08T11:37:02;4.17;;;3.23;;
13345;SDS011;6742;48.036;15.780;2023-02-08T11:39:38;4.13;;;2.80;;
13345;SDS011;6742;48.036;15.780;2023-02-08T11:42:12;5.40;;;3.27;;
13345;SDS011;6742;48.036;15.780;2023-02-08T11:44:45;5.00;;;2.87;;
13345;SDS011;6742;48.036;15.780;2023-02-08T11:47:14;4.10;;;2.30;;
13345;SDS011;6742;48.036;15.780;2023-02-08T11:49:43;5.30;;;3.93;;
13345;SDS011;6742;48.036;15.780;2023-02-08T11:52:19;7.60;;;4.40;;
13345;SDS011;6742;48.036;15.780;2023-02-08T11:54:49;6.30;;;3.90;;
13345;SDS011;6742;48.036;15.780;2023-02-08T11:57:17;6.57;;;3.60;;
13345;SDS011;6742;48.036;15.780;2023-02-08T11:59:45;4.93;;;3.53;;
13345;SDS011;6742;48.036;15.780;2023-02-08T12:02:24;5.03;;;3.50;;
13345;SDS011;6742;48.036;15.780;2023-02-08T12:05:00;4.73;;;2.90;;
13345;SDS011;6742;48.036;15.780;2023-02-08T12:07:31;4.70;;;3.03;;
13345;SDS011;6742;48.036;15.780;2023-02-08T12:10:21;4.43;;;3.20;;
13345;SDS011;6742;48.036;15.780;2023-02-08T12:13:18;5.10;;;3.30;;
13345;SDS011;6742;48.036;15.780;2023-02-08T12:16:17;4.63;;;3.13;;
13345;SDS011;6742;48.036;15.780;2023-02-08T12:19:06;5.83;;;3.87;;
13345;SDS011;6742;48.036;15.780;2023-02-08T12:21:59;6.90;;;4.30;;
13345;SDS011;6742;48.036;15.780;2023-02-08T12:24:33;5.53;;;4.33;;
13345;SDS011;6742;48.036;15.780;2023-02-08T12:27:10;5.47;;;4.10;;
13345;SDS011;6742;48.036;15.780;2023-02-08T12:29:59;6.27;;;4.13;;
13345;SDS011;6742;48.036;15.780;2023-02-08T12:38:22;7.73;;;5.07;;
13345;SDS011;6742;48.036;15.780;2023-02-08T12:41:16;7.87;;;5.07;;
13345;SDS011;6742;48.036;15.780;2023-02-08T12:43:49;8.67;;;4.97;;
13345;SDS011;6742;48.036;15.780;2023-02-08T12:46:29;7.43;;;4.90;;
13345;SDS011;6742;48.036;15.780;2023-02-08T12:52:02;6.00;;;3.90;;
13345;SDS011;6742;48.036;15.780;2023-02-08T12:54:38;3.60;;;2.70;;
13345;SDS011;6742;48.036;15.780;2023-02-08T12:57:09;3.87;;;2.73;;
13345;SDS011;6742;48.036;15.780;2023-02-08T12:59:40;3.87;;;2.70;;
13345;SDS011;6742;48.036;15.780;2023-02-08T13:02:12;4.03;;;3.20;;
13345;SDS011;6742;48.036;15.780;2023-02-08T13:04:45;3.53;;;2.83;;
13345;SDS011;6742;48.036;15.780;2023-02-08T13:07:15;4.60;;;2.90;;
13345;SDS011;6742;48.036;15.780;2023-02-08T13:09:51;3.10;;;2.40;;
13345;SDS011;6742;48.036;15.780;2023-02-08T13:12:28;3.80;;;2.40;;
13345;SDS011;6742;48.036;15.780;2023-02-08T13:14:59;3.60;;;2.73;;
13345;SDS011;6742;48.036;15.780;2023-02-08T13:17:34;4.33;;;2.80;;
13345;SDS011;6742;48.036;15.780;2023-02-08T13:20:15;4.53;;;2.83;;
13345;SDS011;6742;48.036;15.780;2023-02-08T13:22:52;4.33;;;2.83;;
13345;SDS011;6742;48.036;15.780;2023-02-08T13:25:24;5.03;;;3.20;;
13345;SDS011;6742;48.036;15.780;2023-02-08T13:27:59;5.63;;;2.30;;
13345;SDS011;6742;48.036;15.780;2023-02-08T13:30:27;3.63;;;2.73;;
13345;SDS011;6742;48.036;15.780;2023-02-08T13:32:54;3.77;;;2.70;;
13345;SDS011;6742;48.036;15.780;2023-02-08T13:35:23;4.47;;;3.17;;
13345;SDS011;6742;48.036;15.780;2023-02-08T13:37:55;6.87;;;4.07;;
13345;SDS011;6742;48.036;15.780;2023-02-08T13:40:27;9.87;;;5.67;;
13345;SDS011;6742;48.036;15.780;2023-02-08T13:42:58;6.77;;;5.10;;
13345;SDS011;6742;48.036;15.780;2023-02-08T13:45:28;10.37;;;6.37;;
13345;SDS011;6742;48.036;15.780;2023-02-08T13:47:59;6.43;;;4.87;;
13345;SDS011;6742;48.036;15.780;2023-02-08T13:50:38;13.70;;;6.73;;
13345;SDS011;6742;48.036;15.780;2023-02-08T13:53:08;8.10;;;5.90;;
13345;SDS011;6742;48.036;15.780;2023-02-08T13:55:43;7.57;;;5.20;;
13345;SDS011;6742;48.036;15.780;2023-02-08T14:01:27;12.40;;;7.60;;
13345;SDS011;6742;48.036;15.780;2023-02-08T14:06:58;9.30;;;6.97;;
13345;SDS011;6742;48.036;15.780;2023-02-08T14:09:37;11.57;;;7.57;;
13345;SDS011;6742;48.036;15.780;2023-02-08T14:12:15;10.60;;;7.13;;
13345;SDS011;6742;48.036;15.780;2023-02-08T14:17:32;13.47;;;8.40;;
13345;SDS011;6742;48.036;15.780;2023-02-08T14:20:00;11.60;;;8.03;;
13345;SDS011;6742;48.036;15.780;2023-02-08T14:22:30;13.83;;;9.10;;
13345;SDS011;6742;48.036;15.780;2023-02-08T14:25:01;10.33;;;7.57;;
13345;SDS011;6742;48.036;15.780;2023-02-08T14:27:31;16.87;;;10.00;;
13345;SDS011;6742;48.036;15.780;2023-02-08T14:30:05;17.50;;;10.57;;
13345;SDS011;6742;48.036;15.780;2023-02-08T14:32:48;14.80;;;10.10;;
13345;SDS011;6742;48.036;15.780;2023-02-08T14:35:22;13.53;;;9.40;;
13345;SDS011;6742;48.036;15.780;2023-02-08T14:50:30;15.87;;;8.30;;
13345;SDS011;6742;48.036;15.780;2023-02-08T14:53:05;12.63;;;8.03;;
13345;SDS011;6742;48.036;15.780;2023-02-08T14:55:49;15.87;;;8.90;;
13345;SDS011;6742;48.036;15.780;2023-02-08T14:58:23;12.47;;;8.50;;
13345;SDS011;6742;48.036;15.780;2023-02-08T15:00:53;12.47;;;8.43;;
13345;SDS011;6742;48.036;15.780;2023-02-08T15:03:24;10.90;;;7.33;;
13345;SDS011;6742;48.036;15.780;2023-02-08T15:08:48;13.30;;;7.27;;
13345;SDS011;6742;48.036;15.780;2023-02-08T15:11:23;9.60;;;6.43;;
13345;SDS011;6742;48.036;15.780;2023-02-08T15:13:52;9.90;;;6.63;;
13345;SDS011;6742;48.036;15.780;2023-02-08T15:16:21;12.20;;;7.20;;
13345;SDS011;6742;48.036;15.780;2023-02-08T15:18:52;11.43;;;7.20;;
13345;SDS011;6742;48.036;15.780;2023-02-08T15:21:21;12.20;;;7.57;;
13345;SDS011;6742;48.036;15.780;2023-02-08T15:23:57;13.27;;;7.47;;
13345;SDS011;6742;48.036;15.780;2023-02-08T15:26:25;10.63;;;7.40;;
13345;SDS011;6742;48.036;15.780;2023-02-08T15:28:52;11.00;;;6.93;;
13345;SDS011;6742;48.036;15.780;2023-02-08T15:31:20;12.20;;;6.93;;
13345;SDS011;6742;48.036;15.780;2023-02-08T15:33:51;12.33;;;7.57;;
13345;SDS011;6742;48.036;15.780;2023-02-08T15:36:21;10.80;;;7.57;;
13345;SDS011;6742;48.036;15.780;2023-02-08T15:38:53;10.30;;;7.07;;
13345;SDS011;6742;48.036;15.780;2023-02-08T15:41:25;12.67;;;8.00;;